.
WxDataArchive / Data Records for 2016-04-30
2016-04-29 April 2016 2016-05-01

Data Records for Saturday, 30 April 2016

Time	Temp	Chill	HIndex	Humid	Dewpt	 Wind 	HiWind	WindDir	Rain 	Barom
-----	----	-----	------	-----	-----	------	------	-------	-----	-----
00:00	48.2	48.2	48.2	81	42.6	2	4	90	0.00	30.119 
00:05	48.0	48.0	48.0	81	42.5	2	4	112	0.00	30.119 
00:10	48.0	48.0	48.0	81	42.5	1	4	112	0.00	30.119 
00:15	48.0	48.0	48.0	81	42.5	1	3	90	0.00	30.116 
00:20	47.9	47.9	47.9	82	42.7	1	4	90	0.00	30.116 
00:25	47.9	47.9	47.9	82	42.7	1	3	90	0.00	30.116 
00:30	47.7	47.7	47.7	82	42.5	2	4	90	0.00	30.107 
00:35	47.6	47.6	47.6	83	42.7	2	5	112	0.00	30.107 
00:40	47.4	47.4	47.4	83	42.5	2	5	68	0.00	30.107 
00:45	47.1	47.1	47.1	83	42.2	2	4	112	0.00	30.104 
00:50	47.0	47.0	47.0	84	42.4	2	3	90	0.00	30.104 
00:55	46.8	46.8	46.8	84	42.2	2	4	90	0.00	30.104 
01:00	46.5	46.5	46.5	84	41.9	2	4	90	0.00	30.103 
01:05	46.4	46.4	46.4	84	41.8	1	5	112	0.00	30.103 
01:10	46.2	46.2	46.2	85	41.9	1	3	112	0.00	30.103 
01:15	46.1	46.1	46.1	85	41.8	1	3	112	0.00	30.091 
01:20	46.0	46.0	46.0	86	42.0	1	3	112	0.00	30.091 
01:25	45.7	45.7	45.7	86	41.8	2	4	90	0.00	30.091 
01:30	45.5	45.5	45.5	86	41.6	1	5	90	0.00	30.093 
01:35	45.4	45.4	45.4	86	41.5	1	4	68	0.00	30.093 
01:40	45.2	45.2	45.2	86	41.3	2	4	90	0.00	30.093 
01:45	45.2	45.2	45.2	86	41.3	1	3	90	0.00	30.097 
01:50	45.1	45.1	45.1	86	41.2	1	3	90	0.00	30.097 
01:55	44.9	44.9	44.9	86	41.0	1	3	90	0.00	30.097 
02:00	44.9	44.9	44.9	86	41.0	1	4	90	0.00	30.096 
02:05	44.8	44.8	44.8	86	40.9	1	3	68	0.00	30.096 
02:10	44.6	44.6	44.6	86	40.7	1	4	68	0.00	30.096 
02:15	44.6	44.6	44.6	87	41.0	0	2	68	0.00	30.093 
02:20	44.5	44.5	44.5	87	40.9	1	3	68	0.00	30.093 
02:25	44.3	44.3	44.3	87	40.7	1	3	68	0.00	30.093 
02:30	44.2	44.2	44.2	87	40.6	1	3	68	0.00	30.087 
02:35	44.1	44.1	44.1	88	40.8	1	3	68	0.00	30.087 
02:40	43.9	43.9	43.9	88	40.6	1	3	68	0.00	30.087 
02:45	43.9	43.9	43.9	88	40.6	1	5	90	0.00	30.071 
02:50	43.8	43.8	43.8	88	40.5	1	4	90	0.00	30.071 
02:55	43.8	43.8	43.8	88	40.5	1	3	90	0.00	30.071 
03:00	43.8	43.8	43.8	88	40.5	1	4	112	0.00	30.068 
03:05	43.6	43.6	43.6	88	40.3	1	4	112	0.00	30.068 
03:10	43.6	43.6	43.6	88	40.3	1	4	90	0.00	30.068 
03:15	43.5	43.5	43.5	88	40.2	1	4	68	0.00	30.056 
03:20	43.5	43.5	43.5	88	40.2	1	5	68	0.00	30.056 
03:25	43.3	43.3	43.3	88	40.0	1	3	90	0.00	30.056 
03:30	43.2	43.2	43.2	89	40.2	1	3	90	0.00	30.060 
03:35	43.1	43.1	43.1	89	40.1	1	2	90	0.00	30.060 
03:40	42.9	42.9	42.9	89	39.9	0	2	90	0.00	30.060 
03:45	42.8	42.8	42.8	89	39.8	0	3	90	0.00	30.059 
03:50	42.6	42.6	42.6	89	39.6	1	3	90	0.00	30.059 
03:55	42.6	42.6	42.6	89	39.6	0	1	90	0.00	30.059 
04:00	42.5	42.5	42.5	89	39.5	0	2	90	0.00	30.067 
04:05	42.5	42.5	42.5	90	39.8	0	2	90	0.00	30.067 
04:10	42.3	42.3	42.3	90	39.6	0	3	90	0.00	30.067 
04:15	42.3	42.3	42.3	90	39.6	0	2	90	0.00	30.061 
04:20	42.2	42.2	42.2	90	39.5	1	3	90	0.00	30.061 
04:25	42.2	42.2	42.2	90	39.5	1	3	90	0.00	30.061 
04:30	42.1	42.1	42.1	90	39.4	1	2	90	0.00	30.056 
04:35	42.1	42.1	42.1	90	39.4	1	3	90	0.00	30.056 
04:40	42.1	42.1	42.1	90	39.4	1	3	90	0.00	30.056 
04:45	42.1	42.1	42.1	90	39.4	1	4	90	0.00	30.051 
04:50	42.1	42.1	42.1	90	39.4	1	4	90	0.00	30.051 
04:55	42.1	42.1	42.1	90	39.4	1	3	90	0.00	30.051 
05:00	41.9	41.9	41.9	90	39.2	0	3	90	0.00	30.063 
05:05	41.9	41.9	41.9	89	38.9	0	2	90	0.00	30.063 
05:10	41.8	41.8	41.8	89	38.8	1	2	90	0.00	30.063 
05:15	41.6	41.6	41.6	89	38.6	0	3	90	0.00	30.073 
05:20	41.5	41.5	41.5	89	38.5	1	2	90	0.00	30.073 
05:25	41.5	41.5	41.5	89	38.5	1	3	90	0.00	30.073 
05:30	41.3	41.3	41.3	89	38.3	0	3	90	0.00	30.071 
05:35	41.2	41.2	41.2	89	38.2	0	4	90	0.00	30.071 
05:40	41.2	41.2	41.2	89	38.2	1	4	90	0.00	30.071 
05:45	41.2	41.2	41.2	88	37.9	2	4	112	0.00	30.060 
05:50	41.2	41.2	41.2	88	37.9	1	3	112	0.00	30.060 
05:55	41.1	41.1	41.1	87	37.5	1	4	112	0.00	30.060 
06:00	41.2	41.2	41.2	87	37.6	0	2	112	0.00	30.060 
06:05	41.2	41.2	41.2	87	37.6	1	3	112	0.00	30.060 
06:10	41.2	41.2	41.2	87	37.6	1	3	45	0.00	30.060 
06:15	41.2	41.2	41.2	87	37.6	2	6	90	0.00	30.060 
06:20	41.3	41.3	41.3	87	37.7	1	3	90	0.00	30.060 
06:25	41.3	41.3	41.3	87	37.7	2	5	90	0.00	30.060 
06:30	41.2	41.2	41.2	87	37.6	1	3	112	0.00	30.060 
06:35	41.2	41.2	41.2	87	37.6	1	2	112	0.00	30.060 
06:40	41.2	41.2	41.2	88	37.9	1	5	112	0.00	30.060 
06:45	41.2	41.2	41.2	88	37.9	1	4	112	0.00	30.068 
06:50	41.2	41.2	41.2	88	37.9	1	5	112	0.00	30.068 
06:55	41.2	41.2	41.2	88	37.9	1	3	90	0.00	30.068 
07:00	41.2	41.2	41.2	88	37.9	1	3	90	0.00	30.074 
07:05	41.2	41.2	41.2	88	37.9	1	3	90	0.00	30.074 
07:10	41.2	41.2	41.2	87	37.6	1	4	90	0.00	30.074 
07:15	41.3	41.3	41.3	87	37.7	2	6	90	0.00	30.070 
07:20	41.6	41.6	41.6	86	37.7	2	7	112	0.00	30.070 
07:25	41.9	41.9	41.9	85	37.7	2	5	90	0.00	30.070 
07:30	42.1	42.1	42.1	85	37.9	2	4	90	0.00	30.073 
07:35	42.2	42.2	42.2	84	37.7	2	6	90	0.00	30.073 
07:40	42.3	42.3	42.3	84	37.8	2	5	90	0.00	30.073 
07:45	42.5	42.5	42.5	84	38.0	1	5	90	0.00	30.086 
07:50	42.5	42.5	42.5	84	38.0	1	4	135	0.00	30.086 
07:55	42.5	42.5	42.5	84	38.0	1	4	135	0.00	30.086 
08:00	42.5	42.5	42.5	84	38.0	3	5	90	0.00	30.086 
08:05	42.6	42.6	42.6	84	38.1	2	4	112	0.00	30.086 
08:10	42.8	42.8	42.8	84	38.3	2	4	112	0.00	30.086 
08:15	42.8	42.8	42.8	84	38.3	2	4	90	0.00	30.074 
08:20	42.9	42.9	42.9	84	38.4	2	6	112	0.00	30.074 
08:25	43.1	43.1	43.1	84	38.6	2	7	112	0.00	30.074 
08:30	43.2	43.2	43.2	83	38.4	3	6	112	0.00	30.075 
08:35	43.3	43.3	43.3	82	38.2	2	5	90	0.00	30.075 
08:40	43.5	43.5	43.5	82	38.4	2	6	90	0.00	30.075 
08:45	43.8	43.8	43.8	82	38.7	1	5	90	0.00	30.072 
08:50	43.9	43.9	43.9	80	38.1	3	5	90	0.00	30.072 
08:55	44.1	44.1	44.1	80	38.3	3	7	90	0.00	30.072 
09:00	44.3	44.3	44.3	79	38.2	2	7	90	0.00	30.064 
09:05	44.5	44.5	44.5	78	38.1	3	7	90	0.00	30.064 
09:10	44.8	44.8	44.8	77	38.0	3	7	112	0.00	30.064 
09:15	44.9	44.9	44.9	76	37.8	3	7	90	0.00	30.074 
09:20	45.2	45.2	45.2	75	37.8	3	6	90	0.00	30.074 
09:25	45.5	45.5	45.5	75	38.0	2	5	90	0.00	30.074 
09:30	45.7	45.7	45.7	75	38.2	3	7	112	0.00	30.068 
09:35	45.7	43.9	45.7	73	37.5	4	9	90	0.00	30.068 
09:40	45.7	43.9	45.7	73	37.5	4	8	90	0.00	30.068 
09:45	45.8	44.0	45.8	71	36.9	4	10	90	0.00	30.058 
09:50	46.0	46.0	46.0	70	36.8	3	9	112	0.00	30.058 
09:55	46.2	46.2	46.2	70	37.0	3	7	112	0.00	30.058 
10:00	46.4	46.4	46.4	71	37.5	3	5	90	0.00	30.058 
10:05	46.7	46.7	46.7	69	37.1	3	9	90	0.00	30.058 
10:10	46.8	46.8	46.8	69	37.2	3	6	112	0.00	30.058 
10:15	47.1	47.1	47.1	68	37.1	3	8	90	0.00	30.055 
10:20	47.3	47.3	47.3	68	37.3	3	7	112	0.00	30.055 
10:25	47.4	47.4	47.4	68	37.4	3	6	90	0.00	30.055 
10:30	47.6	47.6	47.6	66	36.8	3	9	90	0.00	30.052 
10:35	47.7	46.2	47.7	65	36.5	4	9	90	0.00	30.052 
10:40	47.9	47.9	47.9	65	36.7	3	10	90	0.00	30.052 
10:45	48.0	46.6	48.0	64	36.4	4	12	90	0.00	30.051 
10:50	47.9	46.4	47.9	64	36.3	4	9	112	0.00	30.051 
10:55	48.0	48.0	48.0	66	37.2	3	8	112	0.00	30.051 
11:00	48.2	48.2	48.2	67	37.8	3	6	112	0.00	30.055 
11:05	48.3	48.3	48.3	67	37.9	3	7	90	0.00	30.055 
11:10	48.3	48.3	48.3	67	37.9	3	7	90	0.00	30.055 
11:15	48.3	48.3	48.3	67	37.9	3	9	112	0.00	30.055 
11:20	48.5	48.5	48.5	67	38.0	3	10	90	0.00	30.055 
11:25	48.5	48.5	48.5	68	38.4	3	6	90	0.00	30.055 
11:30	48.5	48.5	48.5	67	38.0	3	6	112	0.00	30.055 
11:35	48.5	48.5	48.5	67	38.0	3	7	112	0.00	30.055 
11:40	48.5	48.5	48.5	68	38.4	3	6	90	0.00	30.055 
11:45	48.5	48.5	48.5	69	38.8	3	6	112	0.00	30.044 
11:50	48.6	48.6	48.6	71	39.6	1	4	112	0.00	30.044 
11:55	48.6	48.6	48.6	72	40.0	3	9	90	0.00	30.044 
12:00	48.5	48.5	48.5	73	40.2	2	5	90	0.00	30.043 
12:05	48.3	48.3	48.3	74	40.4	3	6	112	0.00	30.043 
12:10	48.2	48.2	48.2	76	41.0	2	5	90	0.00	30.043 
12:15	48.2	48.2	48.2	77	41.3	1	5	90	0.01	30.055 
12:20	48.0	48.0	48.0	76	40.8	2	7	90	0.00	30.055 
12:25	48.0	48.0	48.0	78	41.5	2	5	90	0.00	30.055 
12:30	48.2	48.2	48.2	80	42.3	1	5	90	0.00	30.058 
12:35	48.2	48.2	48.2	81	42.6	1	3	90	0.00	30.058 
12:40	48.0	48.0	48.0	80	42.1	2	5	90	0.01	30.058 
12:45	47.9	47.9	47.9	81	42.4	2	5	90	0.00	30.053 
12:50	47.6	47.6	47.6	81	42.1	3	8	90	0.00	30.053 
12:55	47.3	47.3	47.3	81	41.8	3	7	112	0.01	30.053 
13:00	47.1	47.1	47.1	83	42.2	2	4	90	0.00	30.048 
13:05	47.1	47.1	47.1	84	42.5	2	5	90	0.00	30.048 
13:10	47.1	47.1	47.1	84	42.5	2	5	90	0.01	30.048 
13:15	47.1	47.1	47.1	85	42.8	3	5	90	0.00	30.039 
13:20	47.0	47.0	47.0	86	43.0	2	5	90	0.00	30.039 
13:25	47.1	47.1	47.1	87	43.4	2	5	90	0.01	30.039 
13:30	47.1	47.1	47.1	86	43.1	2	5	90	0.00	30.027 
13:35	47.0	47.0	47.0	87	43.3	3	7	90	0.01	30.027 
13:40	47.1	47.1	47.1	87	43.4	2	6	90	0.00	30.027 
13:45	47.1	47.1	47.1	87	43.4	1	5	112	0.00	30.017 
13:50	47.3	47.3	47.3	88	43.9	2	5	112	0.01	30.017 
13:55	47.4	47.4	47.4	88	44.0	2	5	90	0.00	30.017 
14:00	47.3	45.8	47.3	88	43.9	4	9	112	0.00	30.009 
14:05	47.3	47.3	47.3	88	43.9	3	7	112	0.00	30.009 
14:10	47.3	45.8	47.3	88	43.9	4	9	90	0.00	30.009 
14:15	47.4	47.4	47.4	89	44.3	2	6	112	0.01	30.006 
14:20	47.6	47.6	47.6	89	44.5	2	5	90	0.00	30.006 
14:25	47.6	47.6	47.6	89	44.5	3	7	90	0.00	30.006 
14:30	47.6	47.6	47.6	90	44.8	3	6	90	0.00	30.000 
14:35	47.6	47.6	47.6	90	44.8	2	4	68	0.01	30.000 
14:40	47.7	47.7	47.7	90	44.9	2	6	112	0.00	30.000 
14:45	47.7	47.7	47.7	90	44.9	2	6	112	0.01	29.999 
14:50	47.9	47.9	47.9	91	45.4	2	5	112	0.00	29.999 
14:55	47.7	47.7	47.7	91	45.2	2	5	90	0.01	29.999 
15:00	47.7	47.7	47.7	91	45.2	1	4	90	0.00	30.002 
15:05	47.7	47.7	47.7	91	45.2	2	4	90	0.01	30.002 
15:10	47.7	47.7	47.7	92	45.5	2	4	90	0.00	30.002 
15:15	47.7	47.7	47.7	92	45.5	3	7	112	0.01	29.997 
15:20	47.7	47.7	47.7	92	45.5	2	6	90	0.00	29.997 
15:25	47.9	47.9	47.9	92	45.7	1	5	90	0.00	29.997 
15:30	47.9	47.9	47.9	92	45.7	3	6	90	0.00	29.985 
15:35	47.9	47.9	47.9	92	45.7	2	5	90	0.01	29.985 
15:40	48.0	48.0	48.0	92	45.8	1	5	90	0.00	29.985 
15:45	48.3	48.3	48.3	92	46.1	2	6	90	0.00	29.973 
15:50	48.2	48.2	48.2	92	46.0	3	7	90	0.01	29.973 
15:55	48.2	48.2	48.2	92	46.0	3	7	90	0.00	29.973 
16:00	48.3	48.3	48.3	92	46.1	3	9	112	0.00	29.962 
16:05	48.3	48.3	48.3	93	46.4	3	7	112	0.01	29.962 
16:10	48.3	48.3	48.3	93	46.4	2	6	112	0.00	29.962 
16:15	48.3	48.3	48.3	93	46.4	3	7	112	0.00	29.950 
16:20	48.3	48.3	48.3	93	46.4	3	7	112	0.01	29.950 
16:25	48.3	46.9	48.3	93	46.4	4	8	90	0.00	29.950 
16:30	48.5	48.5	48.5	93	46.6	3	10	90	0.02	29.951 
16:35	48.5	47.1	48.5	93	46.6	4	12	90	0.01	29.951 
16:40	48.6	48.6	48.6	93	46.7	3	7	68	0.01	29.951 
16:45	48.6	48.6	48.6	93	46.7	3	7	112	0.00	29.935 
16:50	48.6	46.6	48.6	93	46.7	5	9	90	0.00	29.935 
16:55	48.8	47.5	48.8	94	47.1	4	10	68	0.01	29.935 
17:00	48.8	48.8	48.8	94	47.1	3	7	112	0.00	29.952 
17:05	48.8	48.8	48.8	94	47.1	3	6	112	0.01	29.952 
17:10	48.8	48.8	48.8	94	47.1	3	9	90	0.01	29.952 
17:15	48.8	47.5	48.8	94	47.1	4	10	112	0.00	29.920 
17:20	48.8	48.8	48.8	94	47.1	3	6	112	0.01	29.920 
17:25	48.8	48.8	48.8	94	47.1	3	7	112	0.00	29.920 
17:30	48.8	48.8	48.8	94	47.1	3	8	112	0.01	29.934 
17:35	48.8	48.8	48.8	94	47.1	3	10	68	0.00	29.934 
17:40	48.6	48.6	48.6	94	47.0	3	10	112	0.00	29.934 
17:45	48.5	47.1	48.5	94	46.9	4	12	90	0.00	29.916 
17:50	48.5	47.1	48.5	94	46.9	4	11	112	0.00	29.916 
17:55	48.5	48.5	48.5	94	46.9	3	6	90	0.01	29.916 
18:00	48.5	47.1	48.5	94	46.9	4	10	90	0.00	29.916 
18:05	48.5	47.1	48.5	94	46.9	4	7	112	0.00	29.916 
18:10	48.5	48.5	48.5	94	46.9	3	10	112	0.00	29.916 
18:15	48.6	48.6	48.6	94	47.0	2	6	90	0.00	29.911 
18:20	48.5	48.5	48.5	94	46.9	3	7	112	0.00	29.911 
18:25	48.5	48.5	48.5	94	46.9	2	6	90	0.00	29.911 
18:30	48.3	48.3	48.3	94	46.7	3	7	90	0.00	29.908 
18:35	48.2	48.2	48.2	95	46.8	2	6	135	0.00	29.908 
18:40	48.0	48.0	48.0	94	46.4	3	7	112	0.01	29.908 
18:45	48.0	48.0	48.0	95	46.6	3	10	90	0.00	29.912 
18:50	48.0	48.0	48.0	95	46.6	2	6	112	0.00	29.912 
18:55	47.9	47.9	47.9	95	46.5	3	7	90	0.00	29.912 
19:00	47.9	46.4	47.9	95	46.5	4	8	90	0.01	29.906 
19:05	47.7	47.7	47.7	95	46.3	3	6	90	0.00	29.906 
19:10	47.7	47.7	47.7	95	46.3	3	7	112	0.00	29.906 
19:15	47.7	47.7	47.7	95	46.3	1	4	112	0.00	29.909 
19:20	47.7	47.7	47.7	95	46.3	2	5	112	0.01	29.909 
19:25	47.7	47.7	47.7	95	46.3	3	9	112	0.00	29.909 
19:30	47.7	47.7	47.7	95	46.3	2	8	112	0.00	29.902 
19:35	47.7	47.7	47.7	95	46.3	2	6	90	0.00	29.902 
19:40	47.7	47.7	47.7	95	46.3	2	4	112	0.00	29.902 
19:45	47.7	47.7	47.7	95	46.3	1	6	90	0.01	29.903 
19:50	47.7	47.7	47.7	95	46.3	1	5	112	0.00	29.903 
19:55	47.9	47.9	47.9	95	46.5	2	5	112	0.00	29.903 
20:00	47.9	47.9	47.9	95	46.5	2	5	90	0.01	29.902 
20:05	47.9	47.9	47.9	95	46.5	2	4	90	0.00	29.902 
20:10	47.9	47.9	47.9	95	46.5	2	5	90	0.00	29.902 
20:15	48.0	48.0	48.0	95	46.6	3	5	112	0.00	29.896 
20:20	48.0	48.0	48.0	95	46.6	2	5	90	0.00	29.896 
20:25	48.0	48.0	48.0	95	46.6	3	5	112	0.00	29.896 
20:30	48.0	48.0	48.0	95	46.6	2	5	90	0.00	29.891 
20:35	48.2	48.2	48.2	95	46.8	2	4	90	0.00	29.891 
20:40	48.2	48.2	48.2	95	46.8	3	5	90	0.00	29.891 
20:45	48.2	48.2	48.2	95	46.8	3	6	90	0.00	29.885 
20:50	48.3	48.3	48.3	95	46.9	2	5	112	0.00	29.885 
20:55	48.3	48.3	48.3	95	46.9	2	4	90	0.01	29.885 
21:00	48.3	48.3	48.3	95	46.9	2	5	90	0.00	29.886 
21:05	48.5	48.5	48.5	96	47.4	2	5	68	0.00	29.886 
21:10	48.5	48.5	48.5	95	47.1	2	4	90	0.00	29.886 
21:15	48.5	48.5	48.5	96	47.4	2	5	90	0.00	29.879 
21:20	48.6	48.6	48.6	96	47.5	3	7	90	0.00	29.879 
21:25	48.6	48.6	48.6	96	47.5	2	6	90	0.00	29.879 
21:30	48.6	48.6	48.6	96	47.5	3	6	112	0.00	29.873 
21:35	48.6	48.6	48.6	96	47.5	3	5	90	0.00	29.873 
21:40	48.8	48.8	48.8	96	47.7	3	5	112	0.00	29.873 
21:45	48.8	48.8	48.8	96	47.7	2	6	112	0.00	29.871 
21:50	48.8	48.8	48.8	96	47.7	3	6	68	0.00	29.871 
21:55	48.8	48.8	48.8	96	47.7	2	5	112	0.00	29.871 
22:00	48.8	48.8	48.8	96	47.7	2	9	90	0.00	29.871 
22:05	48.9	48.9	48.9	96	47.8	3	6	112	0.00	29.871 
22:10	48.9	48.9	48.9	96	47.8	3	5	90	0.00	29.871 
22:15	48.9	48.9	48.9	96	47.8	2	7	112	0.00	29.867 
22:20	48.9	48.9	48.9	96	47.8	2	6	90	0.00	29.867 
22:25	48.9	48.9	48.9	96	47.8	3	9	90	0.00	29.867 
22:30	48.9	48.9	48.9	96	47.8	2	5	68	0.00	29.867 
22:35	48.9	48.9	48.9	96	47.8	2	5	90	0.00	29.867 
22:40	48.9	48.9	48.9	96	47.8	1	4	90	0.00	29.867 
22:45	48.9	48.9	48.9	96	47.8	0	3	90	0.00	29.869 
22:50	49.1	49.1	49.1	96	48.0	1	4	90	0.00	29.869 
22:55	49.1	49.1	49.1	96	48.0	0	3	112	0.00	29.869 
23:00	49.1	49.1	49.1	96	48.0	0	0	---	0.01	29.878 
23:05	49.1	49.1	49.1	96	48.0	0	2	112	0.01	29.878 
23:10	49.1	49.1	49.1	96	48.0	0	2	112	0.00	29.878 
23:15	48.9	48.9	48.9	96	47.8	0	2	112	0.01	29.869 
23:20	48.9	48.9	48.9	96	47.8	0	1	112	0.00	29.869 
23:25	48.9	48.9	48.9	96	47.8	1	4	112	0.00	29.869 
23:30	48.9	48.9	48.9	96	47.8	1	2	112	0.00	29.867 
23:35	48.9	48.9	48.9	96	47.8	1	4	112	0.01	29.867 
23:40	48.9	48.9	48.9	96	47.8	0	4	112	0.00	29.867 
23:45	48.9	48.9	48.9	96	47.8	0	2	112	0.00	29.866 
23:50	48.9	48.9	48.9	96	47.8	0	2	22	0.00	29.866 
23:55	48.8	48.8	48.8	96	47.7	1	4	68	0.00	29.866 

CoCoRaHS
IN-AL-39
A2 Web Hosting
Creative Commons License
GoDaddy
search engine by freefind advanced

loaded 2018-11-13 23:29:51 • last modified 2010-11-18 10:43:29
Privacy PolicyDisclaimer
• wx.awcolley.com is powered by PmWiki v.2002016 •
• all content (unless otherwise noted) © 2018 A W Colley